createdAt,value
2018-03-07T00:00:56.833Z,32.77
2018-03-07T00:03:26.350Z,26.70
2018-03-07T00:05:55.618Z,30.70
2018-03-07T00:08:23.983Z,21.47
2018-03-07T00:10:52.434Z,27.73
2018-03-07T00:13:20.692Z,36.30
2018-03-07T00:15:49.763Z,26.25
2018-03-07T00:18:18.127Z,34.63
2018-03-07T00:20:46.443Z,30.07
2018-03-07T00:23:15.498Z,26.93
2018-03-07T00:25:43.804Z,28.50
2018-03-07T00:28:13.032Z,28.20
2018-03-07T00:30:41.454Z,34.40
2018-03-07T00:33:09.804Z,33.10
2018-03-07T00:35:38.253Z,27.63
2018-03-07T00:38:06.658Z,29.57
2018-03-07T00:40:35.160Z,25.10
2018-03-07T00:43:03.494Z,28.93
2018-03-07T00:45:31.848Z,33.47
2018-03-07T00:48:00.193Z,30.83
2018-03-07T00:50:28.708Z,30.83
2018-03-07T00:52:57.740Z,29.73
2018-03-07T00:55:26.103Z,38.86
2018-03-07T00:57:54.383Z,29.23
2018-03-07T01:00:24.284Z,24.60
2018-03-07T01:02:54.439Z,37.50
2018-03-07T01:05:22.710Z,31.60
2018-03-07T01:07:51.018Z,29.60
2018-03-07T01:10:19.282Z,34.73
2018-03-07T01:12:47.654Z,27.40
2018-03-07T01:15:16.099Z,33.95
2018-03-07T01:17:44.565Z,28.33
2018-03-07T01:20:13.054Z,31.75
2018-03-07T01:22:42.223Z,33.58
2018-03-07T01:25:10.658Z,28.27
2018-03-07T01:27:38.964Z,31.17
2018-03-07T01:30:07.280Z,24.93
2018-03-07T01:32:37.178Z,22.15
2018-03-07T01:35:06.298Z,27.83
2018-03-07T01:37:34.638Z,25.47
2018-03-07T01:40:03.480Z,29.30
2018-03-07T01:42:31.990Z,29.70
2018-03-07T01:45:00.390Z,32.47
2018-03-07T01:47:28.839Z,27.52
2018-03-07T01:49:57.141Z,32.83
2018-03-07T01:52:27.058Z,27.77
2018-03-07T01:54:55.475Z,32.47
2018-03-07T01:57:23.877Z,41.00
2018-03-07T01:59:52.331Z,29.10
2018-03-07T02:02:20.870Z,26.63
2018-03-07T02:04:50.174Z,30.05
2018-03-07T02:07:18.484Z,25.90
2018-03-07T02:09:47.563Z,24.53
2018-03-07T02:12:16.773Z,28.67
2018-03-07T02:14:45.800Z,27.00
2018-03-07T02:17:14.320Z,30.70
2018-03-07T02:19:42.824Z,24.53
2018-03-07T02:22:12.000Z,29.60
2018-03-07T02:24:40.390Z,33.13
2018-03-07T02:27:09.461Z,38.23
2018-03-07T02:29:38.099Z,37.47
2018-03-07T02:32:06.580Z,38.93
2018-03-07T02:34:35.018Z,34.80
2018-03-07T02:37:03.410Z,36.47
2018-03-07T02:39:31.810Z,27.47
2018-03-07T02:42:00.272Z,29.65
2018-03-07T02:44:29.454Z,32.37
2018-03-07T02:46:57.768Z,35.80
2018-03-07T02:49:26.194Z,37.43
2018-03-07T02:51:55.330Z,30.37
2018-03-07T02:54:23.785Z,36.63
2018-03-07T02:56:52.079Z,33.10
2018-03-07T02:59:21.301Z,39.13
2018-03-07T03:01:49.799Z,31.67
2018-03-07T03:04:18.216Z,29.75
2018-03-07T03:06:46.592Z,38.80
2018-03-07T03:09:17.094Z,32.63
2018-03-07T03:11:46.630Z,35.23
2018-03-07T03:14:15.040Z,35.65
2018-03-07T03:16:44.100Z,39.90
2018-03-07T03:19:12.376Z,40.43
2018-03-07T03:21:40.670Z,31.37
2018-03-07T03:24:09.713Z,31.70
2018-03-07T03:26:38.039Z,29.33
2018-03-07T03:29:06.346Z,36.88
2018-03-07T03:31:34.926Z,33.97
2018-03-07T03:34:03.574Z,42.13
2018-03-07T03:36:31.843Z,37.33
2018-03-07T03:39:01.582Z,43.53
2018-03-07T03:41:31.880Z,45.10
2018-03-07T03:44:00.145Z,47.43
2018-03-07T03:46:28.445Z,35.37
2018-03-07T03:48:56.854Z,38.23
2018-03-07T03:51:25.289Z,38.57
2018-03-07T03:53:53.611Z,43.42
2018-03-07T03:56:21.968Z,46.77
2018-03-07T03:58:50.979Z,40.60
2018-03-07T04:01:19.309Z,37.33
2018-03-07T04:03:47.668Z,37.37
2018-03-07T04:06:16.247Z,40.70
2018-03-07T04:08:44.714Z,41.63
2018-03-07T04:11:14.136Z,39.97
2018-03-07T04:13:42.644Z,46.00
2018-03-07T04:16:10.881Z,46.70
2018-03-07T04:18:39.171Z,39.87
2018-03-07T04:21:07.549Z,39.13
2018-03-07T04:23:35.833Z,35.85
2018-03-07T04:26:04.249Z,39.40
2018-03-07T04:28:33.512Z,36.42
2018-03-07T04:31:02.913Z,47.03
2018-03-07T04:33:31.201Z,37.53
2018-03-07T04:35:59.649Z,34.80
2018-03-07T04:38:27.983Z,32.83
2018-03-07T04:40:56.241Z,34.37
2018-03-07T04:43:25.414Z,34.63
2018-03-07T04:45:53.729Z,24.07
2018-03-07T04:48:22.871Z,31.33
2018-03-07T04:50:51.454Z,37.60
2018-03-07T04:53:19.724Z,29.97
2018-03-07T04:55:48.029Z,26.08
2018-03-07T04:58:16.456Z,32.70
2018-03-07T05:00:44.855Z,27.47
2018-03-07T05:03:13.159Z,26.37
2018-03-07T05:05:41.435Z,31.20
2018-03-07T05:08:09.822Z,30.70
2018-03-07T05:10:38.072Z,27.90
2018-03-07T05:13:06.360Z,31.93
2018-03-07T05:15:34.661Z,34.93
2018-03-07T05:18:02.954Z,37.70
2018-03-07T05:20:32.116Z,31.05
2018-03-07T05:23:00.634Z,29.65
2018-03-07T05:25:29.731Z,27.27
2018-03-07T05:27:58.812Z,32.10
2018-03-07T05:30:27.065Z,29.50
2018-03-07T05:32:55.859Z,27.42
2018-03-07T05:35:24.136Z,25.77
2018-03-07T05:37:52.414Z,34.20
2018-03-07T05:40:20.797Z,34.50
2018-03-07T05:42:49.048Z,35.87
2018-03-07T05:45:17.324Z,24.52
2018-03-07T05:47:45.716Z,27.13
2018-03-07T05:50:14.204Z,28.93
2018-03-07T05:52:42.511Z,35.33
2018-03-07T05:55:11.537Z,27.77
2018-03-07T05:57:39.875Z,32.23
2018-03-07T06:00:08.922Z,35.40
2018-03-07T06:02:37.341Z,26.84
2018-03-07T06:05:05.841Z,29.30
2018-03-07T06:07:34.897Z,26.70
2018-03-07T06:10:03.455Z,26.63
2018-03-07T06:12:33.300Z,25.98
2018-03-07T06:15:02.751Z,21.93
2018-03-07T06:17:31.179Z,29.10
2018-03-07T06:19:59.519Z,30.87
2018-03-07T06:22:27.811Z,26.33
2018-03-07T06:24:56.115Z,32.83
2018-03-07T06:27:24.373Z,27.67
2018-03-07T06:29:52.756Z,35.27
2018-03-07T06:32:21.031Z,38.20
2018-03-07T06:34:49.435Z,34.05
2018-03-07T06:37:18.523Z,28.37
2018-03-07T06:39:46.926Z,30.62
2018-03-07T06:42:17.129Z,27.40
2018-03-07T06:44:45.598Z,30.10
2018-03-07T06:47:13.931Z,31.23
2018-03-07T06:49:42.269Z,33.87
2018-03-07T06:52:10.690Z,36.60
2018-03-07T06:54:38.937Z,38.27
2018-03-07T06:57:08.226Z,36.17
2018-03-07T06:59:37.260Z,39.63
2018-03-07T07:02:05.590Z,34.17
2018-03-07T07:04:34.689Z,34.97
2018-03-07T07:07:03.734Z,43.10
2018-03-07T07:09:31.988Z,26.67
2018-03-07T07:12:00.286Z,33.23
2018-03-07T07:14:28.536Z,25.93
2018-03-07T07:16:57.058Z,34.73
2018-03-07T07:19:25.331Z,23.63
2018-03-07T07:21:53.683Z,35.70
2018-03-07T07:24:22.171Z,33.53
2018-03-07T07:26:50.615Z,29.07
2018-03-07T07:29:19.670Z,31.27
2018-03-07T07:31:47.970Z,29.77
2018-03-07T07:34:17.046Z,27.43
2018-03-07T07:36:45.439Z,38.50
2018-03-07T07:39:13.685Z,34.83
2018-03-07T07:41:42.192Z,34.03
2018-03-07T07:44:10.490Z,47.73
2018-03-07T07:46:39.722Z,37.67
2018-03-07T07:49:07.977Z,44.00
2018-03-07T07:51:36.983Z,39.83
2018-03-07T07:54:05.273Z,44.83
2018-03-07T07:56:33.590Z,37.40
2018-03-07T07:59:01.853Z,50.43
2018-03-07T08:01:30.175Z,56.33
2018-03-07T08:03:58.447Z,61.70
2018-03-07T08:06:27.572Z,68.22
2018-03-07T08:08:55.826Z,44.13
2018-03-07T08:11:24.392Z,46.13
2018-03-07T08:13:53.536Z,41.30
2018-03-07T08:16:21.920Z,37.40
2018-03-07T08:18:50.215Z,50.83
2018-03-07T08:21:20.078Z,50.90
2018-03-07T08:23:48.356Z,74.43
2018-03-07T08:26:16.624Z,47.07
2018-03-07T08:28:44.905Z,51.27
2018-03-07T08:31:13.318Z,43.50
2018-03-07T08:33:41.657Z,40.85
2018-03-07T08:36:10.049Z,46.07
2018-03-07T08:38:38.340Z,53.67
2018-03-07T08:41:06.624Z,43.93
2018-03-07T08:43:34.892Z,55.43
2018-03-07T08:46:03.306Z,53.63
2018-03-07T08:48:31.641Z,45.03
2018-03-07T08:51:00.091Z,51.13
2018-03-07T08:53:29.117Z,48.83
2018-03-07T08:55:57.428Z,55.63
2018-03-07T08:58:25.691Z,55.00
2018-03-07T09:00:54.023Z,58.93
2018-03-07T09:03:22.288Z,49.43
2018-03-07T09:05:51.418Z,56.50
2018-03-07T09:08:20.919Z,54.17
2018-03-07T09:10:49.232Z,49.80
2018-03-07T09:13:18.331Z,60.43
2018-03-07T09:15:46.637Z,59.03
2018-03-07T09:18:15.733Z,63.25
2018-03-07T09:20:44.777Z,75.97
2018-03-07T09:23:13.053Z,75.87
2018-03-07T09:25:41.380Z,62.40
2018-03-07T09:28:10.456Z,77.47
2018-03-07T09:30:38.746Z,76.00
2018-03-07T09:33:07.862Z,77.43
2018-03-07T09:35:36.283Z,84.97
2018-03-07T09:38:04.563Z,64.57
2018-03-07T09:40:33.968Z,56.00
2018-03-07T09:43:02.421Z,48.23
2018-03-07T09:45:30.790Z,42.23
2018-03-07T09:47:59.202Z,40.05
2018-03-07T09:50:27.557Z,40.93
2018-03-07T09:52:55.838Z,37.53
2018-03-07T09:55:24.152Z,36.50
2018-03-07T09:57:53.220Z,43.13
2018-03-07T10:00:21.686Z,39.25
2018-03-07T10:02:49.951Z,33.70
2018-03-07T10:05:18.256Z,34.50
2018-03-07T10:07:46.594Z,32.27
2018-03-07T10:10:15.078Z,29.77
2018-03-07T10:12:43.328Z,19.33
2018-03-07T10:15:12.876Z,16.80
2018-03-07T10:17:41.158Z,21.17
2018-03-07T10:20:09.451Z,18.73
2018-03-07T10:22:37.777Z,16.87
2018-03-07T10:25:06.047Z,17.30
2018-03-07T10:27:34.343Z,20.60
2018-03-07T10:30:02.659Z,21.67
2018-03-07T10:32:30.982Z,18.53
2018-03-07T10:34:59.416Z,19.75
2018-03-07T10:37:27.987Z,18.63
2018-03-07T10:39:56.284Z,20.30
2018-03-07T10:42:24.603Z,18.73
2018-03-07T10:44:53.041Z,15.47
2018-03-07T10:47:21.327Z,17.98
2018-03-07T10:49:50.357Z,15.27
2018-03-07T10:52:18.799Z,17.00
2018-03-07T10:54:47.882Z,19.17
2018-03-07T10:57:16.202Z,13.50
2018-03-07T10:59:44.564Z,14.23
2018-03-07T11:02:12.907Z,13.10
2018-03-07T11:04:41.338Z,16.47
2018-03-07T11:09:44.340Z,14.83
2018-03-07T11:12:12.618Z,22.37
2018-03-07T11:14:40.898Z,15.40
2018-03-07T11:17:09.257Z,16.43
2018-03-07T11:19:37.623Z,16.23
2018-03-07T11:22:06.707Z,16.50
2018-03-07T11:24:35.093Z,19.13
2018-03-07T11:27:04.348Z,15.87
2018-03-07T11:29:32.811Z,13.87
2018-03-07T11:32:01.951Z,14.87
2018-03-07T11:34:30.304Z,14.47
2018-03-07T11:36:58.603Z,17.30
2018-03-07T11:39:26.943Z,15.30
2018-03-07T11:41:55.353Z,14.23
2018-03-07T11:44:23.654Z,14.10
2018-03-07T11:46:52.663Z,18.40
2018-03-07T11:49:20.949Z,17.20
2018-03-07T11:51:49.242Z,13.17
2018-03-07T11:54:17.533Z,10.43
2018-03-07T11:56:45.836Z,12.10
2018-03-07T11:59:14.190Z,11.17
2018-03-07T12:01:42.475Z,10.17
2018-03-07T12:04:10.887Z,8.95
2018-03-07T12:06:40.127Z,13.30
2018-03-07T12:09:08.751Z,9.60
2018-03-07T12:11:37.991Z,14.07
2018-03-07T12:14:06.449Z,12.17
2018-03-07T12:16:35.538Z,11.37
2018-03-07T12:19:03.846Z,8.93
2018-03-07T12:21:32.159Z,11.23
2018-03-07T12:24:00.642Z,10.30
2018-03-07T12:26:29.022Z,8.38
2018-03-07T12:28:57.326Z,9.30
2018-03-07T12:31:26.496Z,12.73
2018-03-07T12:33:54.803Z,10.57
2018-03-07T12:36:23.202Z,9.97
2018-03-07T12:38:51.543Z,10.77
2018-03-07T12:41:20.789Z,10.85
2018-03-07T12:43:50.921Z,11.18
2018-03-07T12:46:19.280Z,13.87
2018-03-07T12:48:47.724Z,10.47
2018-03-07T12:51:16.016Z,14.47
2018-03-07T12:53:45.136Z,14.73
2018-03-07T12:56:13.442Z,11.77
2018-03-07T12:58:41.712Z,10.40
2018-03-07T13:01:10.040Z,11.13
2018-03-07T13:03:39.125Z,11.80
2018-03-07T13:06:07.433Z,9.27
2018-03-07T13:08:35.726Z,9.70
2018-03-07T13:11:04.027Z,10.37
2018-03-07T13:13:32.520Z,8.00
2018-03-07T13:16:01.568Z,10.40
2018-03-07T13:18:29.933Z,8.87
2018-03-07T13:20:58.238Z,6.87
2018-03-07T13:23:26.582Z,9.47
2018-03-07T13:25:54.980Z,7.40
2018-03-07T13:28:23.279Z,7.63
2018-03-07T13:30:51.593Z,9.80
2018-03-07T13:33:20.018Z,9.40
2018-03-07T13:35:48.488Z,7.78
2018-03-07T13:38:16.774Z,7.43
2018-03-07T13:40:45.149Z,10.32
2018-03-07T13:43:14.255Z,10.32
2018-03-07T13:45:42.555Z,8.37
2018-03-07T13:48:10.866Z,9.23
2018-03-07T13:50:39.267Z,7.60
2018-03-07T13:53:07.724Z,8.73
2018-03-07T13:55:35.996Z,9.30
2018-03-07T13:58:05.285Z,8.30
2018-03-07T14:00:33.572Z,9.43
2018-03-07T14:03:02.667Z,7.80
2018-03-07T14:05:31.906Z,9.43
2018-03-07T14:08:00.368Z,8.20
2018-03-07T14:10:28.760Z,11.07
2018-03-07T14:12:57.078Z,10.55
2018-03-07T14:15:25.424Z,9.90
2018-03-07T14:17:54.081Z,7.10
2018-03-07T14:20:23.270Z,7.03
2018-03-07T14:22:52.363Z,10.13
2018-03-07T14:25:20.747Z,8.13
2018-03-07T14:27:49.095Z,8.17
2018-03-07T14:30:17.424Z,9.27
2018-03-07T14:32:45.759Z,9.95
2018-03-07T14:35:14.879Z,9.00
2018-03-07T14:37:43.173Z,12.57
2018-03-07T14:40:11.542Z,12.33
2018-03-07T14:42:41.717Z,9.63
2018-03-07T14:45:09.990Z,10.52
2018-03-07T14:47:38.264Z,13.40
2018-03-07T14:50:06.741Z,12.07
2018-03-07T14:52:35.176Z,13.10
2018-03-07T14:55:04.649Z,10.50
2018-03-07T14:57:33.060Z,12.45
2018-03-07T15:00:01.364Z,10.00
2018-03-07T15:02:29.688Z,10.47
2018-03-07T15:04:58.744Z,10.00
2018-03-07T15:07:27.202Z,11.70
2018-03-07T15:09:55.612Z,11.73
2018-03-07T15:12:24.060Z,11.47
2018-03-07T15:14:52.627Z,11.30
2018-03-07T15:17:20.974Z,11.13
2018-03-07T15:19:50.321Z,11.80
2018-03-07T15:22:18.748Z,10.07
2018-03-07T15:24:47.017Z,10.88
2018-03-07T15:27:15.333Z,12.70
2018-03-07T15:29:43.663Z,11.63
2018-03-07T15:32:12.201Z,13.40
2018-03-07T15:34:40.505Z,8.97
2018-03-07T15:37:08.808Z,14.82
2018-03-07T15:39:37.124Z,7.93
2018-03-07T15:42:06.061Z,8.13
2018-03-07T15:44:34.410Z,9.33
2018-03-07T15:47:02.766Z,9.83
2018-03-07T15:49:31.094Z,9.00
2018-03-07T15:51:59.393Z,8.20
2018-03-07T15:54:27.683Z,7.97
2018-03-07T15:56:56.174Z,6.90
2018-03-07T15:59:24.484Z,7.97
2018-03-07T16:01:52.800Z,7.87
2018-03-07T16:04:21.285Z,6.95
2018-03-07T16:06:50.494Z,9.83
2018-03-07T16:09:18.810Z,6.97
2018-03-07T16:11:47.155Z,8.88
2018-03-07T16:14:16.233Z,6.50
2018-03-07T16:16:44.623Z,6.13
2018-03-07T16:19:12.924Z,8.47
2018-03-07T16:21:41.419Z,5.70
2018-03-07T16:24:10.187Z,5.93
2018-03-07T16:26:38.531Z,5.50
2018-03-07T16:29:06.838Z,6.43
2018-03-07T16:31:35.195Z,5.35
2018-03-07T16:34:03.488Z,5.67
2018-03-07T16:36:32.027Z,5.47
2018-03-07T16:39:00.679Z,7.90
2018-03-07T16:41:29.042Z,4.97
2018-03-07T16:43:57.358Z,5.20
2018-03-07T16:46:25.723Z,5.57
2018-03-07T16:48:54.045Z,4.82
2018-03-07T16:51:23.118Z,5.67
2018-03-07T16:53:51.418Z,5.70
2018-03-07T16:56:20.547Z,7.47
2018-03-07T16:58:49.604Z,5.03
2018-03-07T17:01:18.829Z,6.87
2018-03-07T17:03:47.153Z,4.87
2018-03-07T17:06:15.605Z,4.23
2018-03-07T17:08:43.999Z,5.83
2018-03-07T17:11:12.383Z,5.53
2018-03-07T17:13:40.784Z,5.57
2018-03-07T17:16:10.624Z,5.20
2018-03-07T17:18:39.755Z,8.15
2018-03-07T17:21:08.025Z,5.50
2018-03-07T17:23:36.517Z,7.13
2018-03-07T17:26:05.061Z,7.10
2018-03-07T17:28:34.176Z,7.67
2018-03-07T17:31:03.604Z,6.97
2018-03-07T17:33:31.939Z,8.75
2018-03-07T17:36:00.280Z,4.40
2018-03-07T17:38:28.661Z,4.73
2018-03-07T17:40:56.968Z,5.37
2018-03-07T17:43:26.170Z,5.37
2018-03-07T17:45:55.266Z,6.37
2018-03-07T17:48:23.605Z,5.00
2018-03-07T17:50:51.932Z,6.77
2018-03-07T17:53:20.266Z,4.50
2018-03-07T17:55:49.312Z,5.78
2018-03-07T17:58:17.651Z,4.27
2018-03-07T18:00:46.764Z,5.03
2018-03-07T18:03:15.146Z,8.30
2018-03-07T18:05:43.470Z,4.18
2018-03-07T18:08:11.737Z,4.73
2018-03-07T18:10:40.070Z,6.27
2018-03-07T18:13:09.175Z,6.73
2018-03-07T18:15:37.911Z,5.33
2018-03-07T18:18:06.284Z,5.67
2018-03-07T18:20:34.606Z,4.90
2018-03-07T18:23:03.796Z,4.60
2018-03-07T18:25:32.913Z,4.90
2018-03-07T18:28:01.339Z,4.10
2018-03-07T18:30:30.941Z,6.10
2018-03-07T18:32:59.262Z,4.43
2018-03-07T18:35:27.638Z,5.43
2018-03-07T18:37:56.039Z,5.03
2018-03-07T18:40:24.430Z,6.00
2018-03-07T18:42:52.857Z,5.95
2018-03-07T18:45:21.974Z,4.57
2018-03-07T18:47:50.338Z,6.32
2018-03-07T18:50:19.549Z,5.90
2018-03-07T18:52:47.886Z,9.80
2018-03-07T18:55:16.274Z,5.40
2018-03-07T18:57:45.489Z,3.80
2018-03-07T19:00:15.939Z,3.20
2018-03-07T19:02:44.697Z,3.03
2018-03-07T19:05:14.224Z,2.93
2018-03-07T19:07:42.767Z,4.17
2018-03-07T19:10:11.276Z,2.77
2018-03-07T19:12:39.616Z,3.97
2018-03-07T19:15:08.060Z,3.53
2018-03-07T19:17:36.551Z,3.40
2018-03-07T19:20:04.921Z,3.80
2018-03-07T19:22:33.383Z,6.33
2018-03-07T19:25:01.724Z,4.00
2018-03-07T19:27:30.896Z,4.20
2018-03-07T19:29:59.353Z,4.60
2018-03-07T19:32:28.236Z,4.60
2018-03-07T19:34:56.861Z,5.40
2018-03-07T19:37:26.544Z,5.25
2018-03-07T19:39:55.280Z,5.27
2018-03-07T19:42:23.860Z,5.68
2018-03-07T19:44:52.421Z,5.07
2018-03-07T19:47:21.551Z,5.85
2018-03-07T19:49:50.051Z,5.43
2018-03-07T19:52:18.612Z,5.47
2018-03-07T19:54:46.977Z,5.50
2018-03-07T19:57:15.384Z,5.50
2018-03-07T19:59:43.915Z,5.17
2018-03-07T20:02:13.045Z,5.13
2018-03-07T20:04:41.639Z,5.33
2018-03-07T20:07:09.977Z,7.73
2018-03-07T20:09:39.206Z,6.43
2018-03-07T20:12:07.741Z,6.70
2018-03-07T20:14:36.206Z,7.77
2018-03-07T20:17:04.704Z,8.77
2018-03-07T20:19:33.894Z,10.35
2018-03-07T20:22:02.413Z,8.68
2018-03-07T20:24:30.792Z,8.53
2018-03-07T20:26:59.218Z,8.93
2018-03-07T20:29:27.564Z,8.33
2018-03-07T20:31:55.986Z,8.63
2018-03-07T20:34:24.352Z,9.10
2018-03-07T20:36:52.870Z,9.07
2018-03-07T20:39:21.249Z,11.07
2018-03-07T20:41:50.521Z,9.65
2018-03-07T20:44:20.600Z,10.10
2018-03-07T20:46:49.046Z,8.80
2018-03-07T20:49:18.242Z,9.27
2018-03-07T20:51:47.535Z,9.83
2018-03-07T20:54:16.609Z,10.18
2018-03-07T20:56:45.002Z,9.33
2018-03-07T20:59:14.323Z,9.70
2018-03-07T21:01:43.478Z,10.33
2018-03-07T21:04:11.900Z,11.37
2018-03-07T21:06:40.217Z,9.93
2018-03-07T21:09:08.594Z,10.43
2018-03-07T21:11:37.391Z,10.23
2018-03-07T21:14:05.755Z,9.95
2018-03-07T21:16:34.127Z,10.47
2018-03-07T21:19:02.494Z,14.53
2018-03-07T21:21:30.892Z,12.20
2018-03-07T21:23:59.425Z,12.73
2018-03-07T21:26:28.640Z,12.00
2018-03-07T21:28:56.956Z,13.73
2018-03-07T21:31:25.290Z,19.60
2018-03-07T21:33:54.392Z,14.80
2018-03-07T21:36:22.732Z,18.60
2018-03-07T21:38:51.252Z,16.60
2018-03-07T21:41:19.541Z,15.10
2018-03-07T21:43:47.844Z,13.97
2018-03-07T21:46:16.153Z,13.27
2018-03-07T21:48:44.489Z,13.38
2018-03-07T21:51:12.808Z,15.87
2018-03-07T21:53:41.984Z,18.25
2018-03-07T21:56:11.068Z,16.47
2018-03-07T21:58:39.449Z,14.87
2018-03-07T22:01:07.785Z,13.82
2018-03-07T22:03:36.901Z,15.40
2018-03-07T22:06:05.276Z,15.97
2018-03-07T22:08:33.794Z,15.63
2018-03-07T22:11:02.106Z,17.07
2018-03-07T22:13:31.325Z,18.03
2018-03-07T22:15:59.650Z,16.77
2018-03-07T22:18:27.962Z,18.02
2018-03-07T22:20:57.011Z,17.60
2018-03-07T22:23:25.330Z,14.83
2018-03-07T22:25:55.482Z,16.77
2018-03-07T22:28:23.751Z,14.95
2018-03-07T22:30:52.076Z,15.00
2018-03-07T22:33:20.522Z,16.43
2018-03-07T22:35:49.118Z,19.03
2018-03-07T22:38:17.607Z,18.83
2018-03-07T22:40:45.865Z,18.73
2018-03-07T22:43:14.142Z,20.62
2018-03-07T22:45:42.460Z,21.52
2018-03-07T22:48:10.771Z,21.23
2018-03-07T22:50:39.082Z,20.85
2018-03-07T22:53:07.437Z,21.08
2018-03-07T22:55:35.938Z,22.87
2018-03-07T22:58:04.446Z,23.73
2018-03-07T23:00:38.530Z,26.10
2018-03-07T23:03:06.860Z,27.07
2018-03-07T23:05:36.095Z,25.03
2018-03-07T23:08:04.606Z,24.70
2018-03-07T23:10:32.862Z,25.07
2018-03-07T23:13:01.240Z,27.55
2018-03-07T23:15:29.675Z,27.60
2018-03-07T23:17:58.150Z,26.57
2018-03-07T23:20:26.581Z,29.53
2018-03-07T23:22:54.964Z,28.77
2018-03-07T23:25:23.446Z,29.50
2018-03-07T23:27:51.915Z,29.90
2018-03-07T23:30:20.211Z,30.80
2018-03-07T23:32:48.482Z,30.37
2018-03-07T23:35:16.923Z,31.23
2018-03-07T23:37:45.353Z,29.60
2018-03-07T23:40:15.406Z,31.50
2018-03-07T23:42:44.434Z,35.27
2018-03-07T23:45:12.938Z,34.23
2018-03-07T23:47:41.225Z,32.40
2018-03-07T23:50:09.538Z,29.23
2018-03-07T23:52:37.825Z,30.27
2018-03-07T23:55:06.100Z,29.27
2018-03-07T23:57:34.407Z,28.07
